sensor_id;sensor_type;location;lat;lon;timestamp;P1;durP1;ratioP1;P2;durP2;ratioP2
3121;SDS011;1571;52.524;14.104;2023-04-01T00:00:07;2.77;;;2.40;;
3121;SDS011;1571;52.524;14.104;2023-04-01T00:02:39;4.60;;;2.77;;
3121;SDS011;1571;52.524;14.104;2023-04-01T00:05:08;4.47;;;2.70;;
3121;SDS011;1571;52.524;14.104;2023-04-01T00:07:39;3.80;;;2.30;;
3121;SDS011;1571;52.524;14.104;2023-04-01T00:10:09;3.00;;;2.70;;
3121;SDS011;1571;52.524;14.104;2023-04-01T00:12:39;4.83;;;2.60;;
3121;SDS011;1571;52.524;14.104;2023-04-01T00:15:08;7.47;;;3.03;;
3121;SDS011;1571;52.524;14.104;2023-04-01T00:17:38;6.07;;;2.57;;
3121;SDS011;1571;52.524;14.104;2023-04-01T00:20:07;3.57;;;2.67;;
3121;SDS011;1571;52.524;14.104;2023-04-01T00:22:36;3.17;;;2.87;;
3121;SDS011;1571;52.524;14.104;2023-04-01T00:25:06;2.87;;;2.60;;
3121;SDS011;1571;52.524;14.104;2023-04-01T00:27:35;4.50;;;3.07;;
3121;SDS011;1571;52.524;14.104;2023-04-01T00:30:03;4.83;;;3.20;;
3121;SDS011;1571;52.524;14.104;2023-04-01T00:32:33;3.67;;;3.37;;
3121;SDS011;1571;52.524;14.104;2023-04-01T00:35:01;4.07;;;3.77;;
3121;SDS011;1571;52.524;14.104;2023-04-01T00:37:30;3.47;;;3.13;;
3121;SDS011;1571;52.524;14.104;2023-04-01T00:39:58;4.60;;;3.67;;
3121;SDS011;1571;52.524;14.104;2023-04-01T00:42:28;3.70;;;3.40;;
3121;SDS011;1571;52.524;14.104;2023-04-01T00:44:56;4.80;;;3.53;;
3121;SDS011;1571;52.524;14.104;2023-04-01T00:47:25;4.03;;;3.57;;
3121;SDS011;1571;52.524;14.104;2023-04-01T00:49:55;5.57;;;3.83;;
3121;SDS011;1571;52.524;14.104;2023-04-01T00:52:23;6.13;;;4.33;;
3121;SDS011;1571;52.524;14.104;2023-04-01T00:54:54;5.90;;;4.60;;
3121;SDS011;1571;52.524;14.104;2023-04-01T00:57:29;4.40;;;4.00;;
3121;SDS011;1571;52.524;14.104;2023-04-01T01:00:00;6.83;;;4.57;;
3121;SDS011;1571;52.524;14.104;2023-04-01T01:02:28;6.40;;;4.63;;
3121;SDS011;1571;52.524;14.104;2023-04-01T01:04:59;5.93;;;4.27;;
3121;SDS011;1571;52.524;14.104;2023-04-01T01:07:28;9.40;;;5.47;;
3121;SDS011;1571;52.524;14.104;2023-04-01T01:10:05;5.63;;;5.00;;
3121;SDS011;1571;52.524;14.104;2023-04-01T01:12:40;6.67;;;5.43;;
3121;SDS011;1571;52.524;14.104;2023-04-01T01:15:15;7.93;;;4.63;;
3121;SDS011;1571;52.524;14.104;2023-04-01T01:17:50;6.00;;;5.47;;
3121;SDS011;1571;52.524;14.104;2023-04-01T01:20:29;8.20;;;5.70;;
3121;SDS011;1571;52.524;14.104;2023-04-01T01:23:16;6.93;;;5.73;;
3121;SDS011;1571;52.524;14.104;2023-04-01T01:26:02;6.50;;;5.23;;
3121;SDS011;1571;52.524;14.104;2023-04-01T01:28:47;5.23;;;4.73;;
3121;SDS011;1571;52.524;14.104;2023-04-01T01:31:28;11.03;;;5.53;;
3121;SDS011;1571;52.524;14.104;2023-04-01T01:34:04;8.90;;;6.33;;
3121;SDS011;1571;52.524;14.104;2023-04-01T01:36:45;6.27;;;5.67;;
3121;SDS011;1571;52.524;14.104;2023-04-01T01:39:16;14.93;;;6.03;;
3121;SDS011;1571;52.524;14.104;2023-04-01T01:41:47;8.77;;;6.37;;
3121;SDS011;1571;52.524;14.104;2023-04-01T01:44:16;7.10;;;6.00;;
3121;SDS011;1571;52.524;14.104;2023-04-01T01:46:46;9.10;;;6.47;;
3121;SDS011;1571;52.524;14.104;2023-04-01T01:49:16;8.23;;;6.83;;
3121;SDS011;1571;52.524;14.104;2023-04-01T01:51:48;14.67;;;7.10;;
3121;SDS011;1571;52.524;14.104;2023-04-01T01:54:17;14.13;;;8.20;;
3121;SDS011;1571;52.524;14.104;2023-04-01T01:56:46;11.30;;;7.10;;
3121;SDS011;1571;52.524;14.104;2023-04-01T01:59:17;9.47;;;8.43;;
3121;SDS011;1571;52.524;14.104;2023-04-01T02:01:49;7.40;;;6.40;;
3121;SDS011;1571;52.524;14.104;2023-04-01T02:04:20;7.23;;;6.47;;
3121;SDS011;1571;52.524;14.104;2023-04-01T02:06:53;12.30;;;9.07;;
3121;SDS011;1571;52.524;14.104;2023-04-01T02:09:27;10.70;;;6.73;;
3121;SDS011;1571;52.524;14.104;2023-04-01T02:11:56;9.17;;;7.00;;
3121;SDS011;1571;52.524;14.104;2023-04-01T02:14:35;9.20;;;6.83;;
3121;SDS011;1571;52.524;14.104;2023-04-01T02:17:09;8.20;;;6.40;;
3121;SDS011;1571;52.524;14.104;2023-04-01T02:19:43;9.43;;;7.07;;
3121;SDS011;1571;52.524;14.104;2023-04-01T02:22:18;12.63;;;7.27;;
3121;SDS011;1571;52.524;14.104;2023-04-01T02:24:50;9.63;;;7.27;;
3121;SDS011;1571;52.524;14.104;2023-04-01T02:27:21;11.07;;;6.60;;
3121;SDS011;1571;52.524;14.104;2023-04-01T02:29:50;11.17;;;7.00;;
3121;SDS011;1571;52.524;14.104;2023-04-01T02:32:18;12.80;;;7.30;;
3121;SDS011;1571;52.524;14.104;2023-04-01T02:34:48;9.10;;;7.30;;
3121;SDS011;1571;52.524;14.104;2023-04-01T02:37:18;12.57;;;8.03;;
3121;SDS011;1571;52.524;14.104;2023-04-01T02:39:46;9.50;;;7.50;;
3121;SDS011;1571;52.524;14.104;2023-04-01T02:42:15;7.07;;;6.37;;
3121;SDS011;1571;52.524;14.104;2023-04-01T02:44:43;10.60;;;6.77;;
3121;SDS011;1571;52.524;14.104;2023-04-01T02:47:11;12.00;;;8.07;;
3121;SDS011;1571;52.524;14.104;2023-04-01T02:49:39;9.37;;;7.30;;
3121;SDS011;1571;52.524;14.104;2023-04-01T02:52:08;10.30;;;6.73;;
3121;SDS011;1571;52.524;14.104;2023-04-01T02:54:38;8.97;;;6.73;;
3121;SDS011;1571;52.524;14.104;2023-04-01T02:57:06;10.07;;;7.20;;
3121;SDS011;1571;52.524;14.104;2023-04-01T02:59:34;8.43;;;6.63;;
3121;SDS011;1571;52.524;14.104;2023-04-01T03:02:03;9.10;;;7.70;;
3121;SDS011;1571;52.524;14.104;2023-04-01T03:04:31;11.23;;;7.60;;
3121;SDS011;1571;52.524;14.104;2023-04-01T03:06:59;10.13;;;7.17;;
3121;SDS011;1571;52.524;14.104;2023-04-01T03:09:27;8.10;;;6.53;;
3121;SDS011;1571;52.524;14.104;2023-04-01T03:11:58;10.00;;;7.93;;
3121;SDS011;1571;52.524;14.104;2023-04-01T03:14:27;9.87;;;7.40;;
3121;SDS011;1571;52.524;14.104;2023-04-01T03:16:56;11.00;;;6.17;;
3121;SDS011;1571;52.524;14.104;2023-04-01T03:19:24;9.30;;;6.83;;
3121;SDS011;1571;52.524;14.104;2023-04-01T03:21:53;10.87;;;6.87;;
3121;SDS011;1571;52.524;14.104;2023-04-01T03:24:21;10.90;;;6.90;;
3121;SDS011;1571;52.524;14.104;2023-04-01T03:26:50;9.57;;;6.70;;
3121;SDS011;1571;52.524;14.104;2023-04-01T03:29:20;13.93;;;7.70;;
3121;SDS011;1571;52.524;14.104;2023-04-01T03:31:49;12.20;;;8.33;;
3121;SDS011;1571;52.524;14.104;2023-04-01T03:34:17;10.83;;;7.30;;
3121;SDS011;1571;52.524;14.104;2023-04-01T03:36:45;10.13;;;7.37;;
3121;SDS011;1571;52.524;14.104;2023-04-01T03:39:13;12.60;;;7.87;;
3121;SDS011;1571;52.524;14.104;2023-04-01T03:41:45;13.43;;;8.03;;
3121;SDS011;1571;52.524;14.104;2023-04-01T03:44:14;15.60;;;8.03;;
3121;SDS011;1571;52.524;14.104;2023-04-01T03:46:46;10.60;;;7.33;;
3121;SDS011;1571;52.524;14.104;2023-04-01T03:49:17;9.97;;;7.10;;
3121;SDS011;1571;52.524;14.104;2023-04-01T03:51:45;11.57;;;7.93;;
3121;SDS011;1571;52.524;14.104;2023-04-01T03:54:13;23.67;;;10.30;;
3121;SDS011;1571;52.524;14.104;2023-04-01T03:56:42;11.50;;;9.30;;
3121;SDS011;1571;52.524;14.104;2023-04-01T03:59:11;11.63;;;9.43;;
3121;SDS011;1571;52.524;14.104;2023-04-01T04:01:40;9.80;;;7.43;;
3121;SDS011;1571;52.524;14.104;2023-04-01T04:04:11;10.00;;;7.03;;
3121;SDS011;1571;52.524;14.104;2023-04-01T04:06:41;12.37;;;7.77;;
3121;SDS011;1571;52.524;14.104;2023-04-01T04:09:09;13.23;;;8.27;;
3121;SDS011;1571;52.524;14.104;2023-04-01T04:11:38;9.70;;;8.10;;
3121;SDS011;1571;52.524;14.104;2023-04-01T04:14:06;12.03;;;6.80;;
3121;SDS011;1571;52.524;14.104;2023-04-01T04:16:34;13.23;;;8.57;;
3121;SDS011;1571;52.524;14.104;2023-04-01T04:19:04;13.57;;;8.50;;
3121;SDS011;1571;52.524;14.104;2023-04-01T04:21:34;11.97;;;7.97;;
3121;SDS011;1571;52.524;14.104;2023-04-01T04:24:02;12.10;;;9.03;;
3121;SDS011;1571;52.524;14.104;2023-04-01T04:26:51;11.90;;;7.43;;
3121;SDS011;1571;52.524;14.104;2023-04-01T04:29:19;12.70;;;8.90;;
3121;SDS011;1571;52.524;14.104;2023-04-01T04:31:50;13.27;;;8.93;;
3121;SDS011;1571;52.524;14.104;2023-04-01T04:34:18;11.80;;;7.50;;
3121;SDS011;1571;52.524;14.104;2023-04-01T04:36:49;11.63;;;7.40;;
3121;SDS011;1571;52.524;14.104;2023-04-01T04:39:19;13.57;;;8.63;;
3121;SDS011;1571;52.524;14.104;2023-04-01T04:41:48;10.80;;;8.97;;
3121;SDS011;1571;52.524;14.104;2023-04-01T04:44:16;15.90;;;9.90;;
3121;SDS011;1571;52.524;14.104;2023-04-01T04:46:45;12.13;;;7.93;;
3121;SDS011;1571;52.524;14.104;2023-04-01T04:49:15;11.03;;;9.20;;
3121;SDS011;1571;52.524;14.104;2023-04-01T04:51:43;12.97;;;9.07;;
3121;SDS011;1571;52.524;14.104;2023-04-01T04:54:15;16.37;;;8.57;;
3121;SDS011;1571;52.524;14.104;2023-04-01T04:56:51;11.10;;;8.37;;
3121;SDS011;1571;52.524;14.104;2023-04-01T04:59:20;14.67;;;10.07;;
3121;SDS011;1571;52.524;14.104;2023-04-01T05:01:56;16.23;;;10.70;;
3121;SDS011;1571;52.524;14.104;2023-04-01T05:04:24;13.73;;;9.97;;
3121;SDS011;1571;52.524;14.104;2023-04-01T05:06:53;16.30;;;9.60;;
3121;SDS011;1571;52.524;14.104;2023-04-01T05:09:24;13.27;;;8.50;;
3121;SDS011;1571;52.524;14.104;2023-04-01T05:11:52;14.33;;;9.17;;
3121;SDS011;1571;52.524;14.104;2023-04-01T05:14:21;18.53;;;10.63;;
3121;SDS011;1571;52.524;14.104;2023-04-01T05:16:59;16.27;;;10.23;;
3121;SDS011;1571;52.524;14.104;2023-04-01T05:19:27;20.10;;;12.23;;
3121;SDS011;1571;52.524;14.104;2023-04-01T05:21:56;17.70;;;12.17;;
3121;SDS011;1571;52.524;14.104;2023-04-01T05:24:25;15.77;;;10.60;;
3121;SDS011;1571;52.524;14.104;2023-04-01T05:26:53;15.90;;;10.23;;
3121;SDS011;1571;52.524;14.104;2023-04-01T05:29:23;15.20;;;10.77;;
3121;SDS011;1571;52.524;14.104;2023-04-01T05:31:58;12.33;;;9.23;;
3121;SDS011;1571;52.524;14.104;2023-04-01T05:34:27;20.33;;;11.40;;
3121;SDS011;1571;52.524;14.104;2023-04-01T05:36:56;15.33;;;9.80;;
3121;SDS011;1571;52.524;14.104;2023-04-01T05:39:25;19.47;;;11.00;;
3121;SDS011;1571;52.524;14.104;2023-04-01T05:41:54;17.37;;;11.80;;
3121;SDS011;1571;52.524;14.104;2023-04-01T05:44:22;15.73;;;10.00;;
3121;SDS011;1571;52.524;14.104;2023-04-01T05:47:19;21.43;;;12.07;;
3121;SDS011;1571;52.524;14.104;2023-04-01T05:49:48;18.33;;;11.33;;
3121;SDS011;1571;52.524;14.104;2023-04-01T05:52:16;19.27;;;11.77;;
3121;SDS011;1571;52.524;14.104;2023-04-01T05:54:46;16.90;;;10.93;;
3121;SDS011;1571;52.524;14.104;2023-04-01T05:57:14;18.40;;;11.53;;
3121;SDS011;1571;52.524;14.104;2023-04-01T05:59:43;25.20;;;11.93;;
3121;SDS011;1571;52.524;14.104;2023-04-01T06:02:12;19.10;;;10.80;;
3121;SDS011;1571;52.524;14.104;2023-04-01T06:04:42;20.00;;;13.13;;
3121;SDS011;1571;52.524;14.104;2023-04-01T06:07:11;22.93;;;13.10;;
3121;SDS011;1571;52.524;14.104;2023-04-01T06:09:40;16.33;;;11.60;;
3121;SDS011;1571;52.524;14.104;2023-04-01T06:12:17;18.30;;;11.80;;
3121;SDS011;1571;52.524;14.104;2023-04-01T06:15:15;17.93;;;11.43;;
3121;SDS011;1571;52.524;14.104;2023-04-01T06:17:56;17.37;;;11.40;;
3121;SDS011;1571;52.524;14.104;2023-04-01T06:20:39;20.60;;;11.97;;
3121;SDS011;1571;52.524;14.104;2023-04-01T06:23:27;20.80;;;10.47;;
3121;SDS011;1571;52.524;14.104;2023-04-01T06:26:10;17.80;;;11.60;;
3121;SDS011;1571;52.524;14.104;2023-04-01T06:29:01;19.27;;;13.03;;
3121;SDS011;1571;52.524;14.104;2023-04-01T06:31:55;18.57;;;11.13;;
3121;SDS011;1571;52.524;14.104;2023-04-01T06:34:40;21.60;;;10.63;;
3121;SDS011;1571;52.524;14.104;2023-04-01T06:37:20;23.80;;;13.33;;
3121;SDS011;1571;52.524;14.104;2023-04-01T06:40:01;24.27;;;13.37;;
3121;SDS011;1571;52.524;14.104;2023-04-01T06:42:54;19.37;;;12.30;;
3121;SDS011;1571;52.524;14.104;2023-04-01T06:46:06;16.10;;;11.20;;
3121;SDS011;1571;52.524;14.104;2023-04-01T06:49:29;22.00;;;11.70;;
3121;SDS011;1571;52.524;14.104;2023-04-01T06:52:37;18.37;;;11.50;;
3121;SDS011;1571;52.524;14.104;2023-04-01T06:55:50;19.30;;;11.93;;
3121;SDS011;1571;52.524;14.104;2023-04-01T06:58:48;18.33;;;10.97;;
3121;SDS011;1571;52.524;14.104;2023-04-01T07:01:22;23.80;;;12.13;;
3121;SDS011;1571;52.524;14.104;2023-04-01T07:03:55;19.13;;;13.00;;
3121;SDS011;1571;52.524;14.104;2023-04-01T07:06:28;23.50;;;11.87;;
3121;SDS011;1571;52.524;14.104;2023-04-01T07:09:02;16.20;;;10.80;;
3121;SDS011;1571;52.524;14.104;2023-04-01T07:11:52;12.87;;;9.03;;
3121;SDS011;1571;52.524;14.104;2023-04-01T07:15:01;14.60;;;9.20;;
3121;SDS011;1571;52.524;14.104;2023-04-01T07:17:35;19.70;;;12.27;;
3121;SDS011;1571;52.524;14.104;2023-04-01T07:20:10;19.97;;;12.60;;
3121;SDS011;1571;52.524;14.104;2023-04-01T07:22:42;20.23;;;12.40;;
3121;SDS011;1571;52.524;14.104;2023-04-01T07:25:25;17.53;;;11.97;;
3121;SDS011;1571;52.524;14.104;2023-04-01T07:28:17;15.57;;;10.57;;
3121;SDS011;1571;52.524;14.104;2023-04-01T07:30:57;22.33;;;11.80;;
3121;SDS011;1571;52.524;14.104;2023-04-01T07:33:37;17.07;;;10.53;;
3121;SDS011;1571;52.524;14.104;2023-04-01T07:36:10;20.93;;;12.97;;
3121;SDS011;1571;52.524;14.104;2023-04-01T07:38:45;14.07;;;10.00;;
3121;SDS011;1571;52.524;14.104;2023-04-01T07:41:47;16.83;;;11.20;;
3121;SDS011;1571;52.524;14.104;2023-04-01T07:44:25;20.23;;;11.30;;
3121;SDS011;1571;52.524;14.104;2023-04-01T07:47:08;18.33;;;11.47;;
3121;SDS011;1571;52.524;14.104;2023-04-01T07:49:49;18.40;;;12.20;;
3121;SDS011;1571;52.524;14.104;2023-04-01T07:52:34;19.50;;;11.23;;
3121;SDS011;1571;52.524;14.104;2023-04-01T07:55:20;13.23;;;8.50;;
3121;SDS011;1571;52.524;14.104;2023-04-01T07:57:56;10.50;;;8.20;;
3121;SDS011;1571;52.524;14.104;2023-04-01T08:00:40;11.43;;;7.73;;
3121;SDS011;1571;52.524;14.104;2023-04-01T08:03:31;11.87;;;7.97;;
3121;SDS011;1571;52.524;14.104;2023-04-01T08:06:10;11.47;;;9.23;;
3121;SDS011;1571;52.524;14.104;2023-04-01T08:08:49;11.63;;;8.67;;
3121;SDS011;1571;52.524;14.104;2023-04-01T08:11:46;12.17;;;9.40;;
3121;SDS011;1571;52.524;14.104;2023-04-01T08:15:00;13.23;;;8.77;;
3121;SDS011;1571;52.524;14.104;2023-04-01T08:17:56;13.70;;;10.17;;
3121;SDS011;1571;52.524;14.104;2023-04-01T08:20:33;31.73;;;15.87;;
3121;SDS011;1571;52.524;14.104;2023-04-01T08:23:10;12.00;;;9.03;;
3121;SDS011;1571;52.524;14.104;2023-04-01T08:25:44;9.63;;;8.70;;
3121;SDS011;1571;52.524;14.104;2023-04-01T08:28:20;27.90;;;15.30;;
3121;SDS011;1571;52.524;14.104;2023-04-01T08:30:54;10.10;;;8.20;;
3121;SDS011;1571;52.524;14.104;2023-04-01T08:33:29;7.77;;;6.70;;
3121;SDS011;1571;52.524;14.104;2023-04-01T08:36:07;10.50;;;7.63;;
3121;SDS011;1571;52.524;14.104;2023-04-01T08:38:42;8.77;;;7.63;;
3121;SDS011;1571;52.524;14.104;2023-04-01T08:41:20;10.00;;;7.37;;
3121;SDS011;1571;52.524;14.104;2023-04-01T08:44:34;9.30;;;8.10;;
3121;SDS011;1571;52.524;14.104;2023-04-01T08:47:19;7.80;;;7.00;;
3121;SDS011;1571;52.524;14.104;2023-04-01T08:53:20;5.93;;;5.20;;
3121;SDS011;1571;52.524;14.104;2023-04-01T08:56:06;5.07;;;4.60;;
3121;SDS011;1571;52.524;14.104;2023-04-01T08:58:52;5.13;;;4.63;;
3121;SDS011;1571;52.524;14.104;2023-04-01T09:01:37;4.90;;;3.40;;
3121;SDS011;1571;52.524;14.104;2023-04-01T09:04:48;3.27;;;2.37;;
3121;SDS011;1571;52.524;14.104;2023-04-01T09:07:34;5.00;;;3.40;;
3121;SDS011;1571;52.524;14.104;2023-04-01T09:10:23;3.00;;;2.63;;
3121;SDS011;1571;52.524;14.104;2023-04-01T09:13:45;3.50;;;3.07;;
3121;SDS011;1571;52.524;14.104;2023-04-01T09:16:41;4.23;;;3.40;;
3121;SDS011;1571;52.524;14.104;2023-04-01T09:19:32;2.63;;;2.43;;
3121;SDS011;1571;52.524;14.104;2023-04-01T09:22:19;2.80;;;2.43;;
3121;SDS011;1571;52.524;14.104;2023-04-01T09:25:01;2.90;;;2.53;;
3121;SDS011;1571;52.524;14.104;2023-04-01T09:27:44;2.77;;;2.57;;
3121;SDS011;1571;52.524;14.104;2023-04-01T09:30:27;2.43;;;2.23;;
3121;SDS011;1571;52.524;14.104;2023-04-01T09:33:07;3.23;;;2.90;;
3121;SDS011;1571;52.524;14.104;2023-04-01T09:36:02;3.00;;;2.50;;
3121;SDS011;1571;52.524;14.104;2023-04-01T09:38:38;3.57;;;3.07;;
3121;SDS011;1571;52.524;14.104;2023-04-01T09:41:19;3.23;;;2.73;;
3121;SDS011;1571;52.524;14.104;2023-04-01T09:44:09;3.03;;;2.73;;
3121;SDS011;1571;52.524;14.104;2023-04-01T09:47:04;2.97;;;2.77;;
3121;SDS011;1571;52.524;14.104;2023-04-01T09:52:47;3.90;;;3.60;;
3121;SDS011;1571;52.524;14.104;2023-04-01T10:08:47;5.00;;;4.50;;
3121;SDS011;1571;52.524;14.104;2023-04-01T10:11:55;6.30;;;4.60;;
3121;SDS011;1571;52.524;14.104;2023-04-01T10:15:19;4.63;;;4.23;;
3121;SDS011;1571;52.524;14.104;2023-04-01T10:18:09;3.70;;;3.20;;
3121;SDS011;1571;52.524;14.104;2023-04-01T10:20:59;3.97;;;3.07;;
3121;SDS011;1571;52.524;14.104;2023-04-01T10:27:03;3.87;;;3.50;;
3121;SDS011;1571;52.524;14.104;2023-04-01T10:36:50;4.97;;;4.47;;
3121;SDS011;1571;52.524;14.104;2023-04-01T10:39:33;6.13;;;4.80;;
3121;SDS011;1571;52.524;14.104;2023-04-01T10:42:34;5.17;;;4.53;;
3121;SDS011;1571;52.524;14.104;2023-04-01T10:48:57;6.70;;;4.10;;
3121;SDS011;1571;52.524;14.104;2023-04-01T10:51:49;4.90;;;4.33;;
3121;SDS011;1571;52.524;14.104;2023-04-01T10:54:53;4.97;;;4.40;;
3121;SDS011;1571;52.524;14.104;2023-04-01T11:01:36;4.10;;;3.80;;
3121;SDS011;1571;52.524;14.104;2023-04-01T11:08:21;4.90;;;4.40;;
3121;SDS011;1571;52.524;14.104;2023-04-01T11:14:38;3.77;;;3.47;;
3121;SDS011;1571;52.524;14.104;2023-04-01T11:17:42;3.63;;;3.40;;
3121;SDS011;1571;52.524;14.104;2023-04-01T11:20:42;3.30;;;2.47;;
3121;SDS011;1571;52.524;14.104;2023-04-01T11:23:29;3.40;;;3.13;;
3121;SDS011;1571;52.524;14.104;2023-04-01T11:26:32;4.07;;;3.70;;
3121;SDS011;1571;52.524;14.104;2023-04-01T11:29:33;2.47;;;2.30;;
3121;SDS011;1571;52.524;14.104;2023-04-01T11:32:34;3.70;;;3.40;;
3121;SDS011;1571;52.524;14.104;2023-04-01T11:35:32;3.53;;;3.33;;
3121;SDS011;1571;52.524;14.104;2023-04-01T11:38:19;3.50;;;3.20;;
3121;SDS011;1571;52.524;14.104;2023-04-01T11:41:32;3.00;;;2.70;;
3121;SDS011;1571;52.524;14.104;2023-04-01T11:44:27;3.87;;;3.47;;
3121;SDS011;1571;52.524;14.104;2023-04-01T11:47:24;3.37;;;3.07;;
3121;SDS011;1571;52.524;14.104;2023-04-01T11:50:12;6.80;;;6.20;;
3121;SDS011;1571;52.524;14.104;2023-04-01T11:52:55;5.30;;;4.80;;
3121;SDS011;1571;52.524;14.104;2023-04-01T11:55:34;4.10;;;3.80;;
3121;SDS011;1571;52.524;14.104;2023-04-01T11:58:20;4.57;;;4.23;;
3121;SDS011;1571;52.524;14.104;2023-04-01T12:01:10;3.90;;;3.57;;
3121;SDS011;1571;52.524;14.104;2023-04-01T12:03:50;3.10;;;2.90;;
3121;SDS011;1571;52.524;14.104;2023-04-01T12:06:40;3.93;;;3.47;;
3121;SDS011;1571;52.524;14.104;2023-04-01T12:09:15;4.03;;;3.73;;
3121;SDS011;1571;52.524;14.104;2023-04-01T12:11:54;4.30;;;3.90;;
3121;SDS011;1571;52.524;14.104;2023-04-01T12:14:36;4.97;;;3.60;;
3121;SDS011;1571;52.524;14.104;2023-04-01T12:17:15;3.50;;;3.20;;
3121;SDS011;1571;52.524;14.104;2023-04-01T12:19:56;3.63;;;3.33;;
3121;SDS011;1571;52.524;14.104;2023-04-01T12:22:35;3.00;;;2.67;;
3121;SDS011;1571;52.524;14.104;2023-04-01T12:25:17;3.93;;;3.20;;
3121;SDS011;1571;52.524;14.104;2023-04-01T12:28:00;3.40;;;3.13;;
3121;SDS011;1571;52.524;14.104;2023-04-01T12:30:39;3.10;;;2.90;;
3121;SDS011;1571;52.524;14.104;2023-04-01T12:33:24;3.40;;;3.10;;
3121;SDS011;1571;52.524;14.104;2023-04-01T12:36:08;3.33;;;3.10;;
3121;SDS011;1571;52.524;14.104;2023-04-01T12:39:00;3.97;;;3.23;;
3121;SDS011;1571;52.524;14.104;2023-04-01T12:41:52;5.20;;;4.80;;
3121;SDS011;1571;52.524;14.104;2023-04-01T12:44:31;4.73;;;4.33;;
3121;SDS011;1571;52.524;14.104;2023-04-01T12:47:12;4.37;;;3.97;;
3121;SDS011;1571;52.524;14.104;2023-04-01T12:52:50;5.43;;;4.63;;
3121;SDS011;1571;52.524;14.104;2023-04-01T12:55:38;7.47;;;6.77;;
3121;SDS011;1571;52.524;14.104;2023-04-01T13:01:34;7.40;;;6.30;;
3121;SDS011;1571;52.524;14.104;2023-04-01T13:04:29;8.17;;;7.07;;
3121;SDS011;1571;52.524;14.104;2023-04-01T13:07:29;7.40;;;6.07;;
3121;SDS011;1571;52.524;14.104;2023-04-01T13:10:14;6.87;;;5.70;;
3121;SDS011;1571;52.524;14.104;2023-04-01T13:13:00;7.00;;;6.30;;
3121;SDS011;1571;52.524;14.104;2023-04-01T13:15:40;6.30;;;5.70;;
3121;SDS011;1571;52.524;14.104;2023-04-01T13:18:19;8.77;;;7.10;;
3121;SDS011;1571;52.524;14.104;2023-04-01T13:20:54;6.33;;;5.77;;
3121;SDS011;1571;52.524;14.104;2023-04-01T13:23:32;8.60;;;6.50;;
3121;SDS011;1571;52.524;14.104;2023-04-01T13:26:11;9.20;;;6.70;;
3121;SDS011;1571;52.524;14.104;2023-04-01T13:28:47;9.23;;;6.70;;
3121;SDS011;1571;52.524;14.104;2023-04-01T13:31:25;8.83;;;6.13;;
3121;SDS011;1571;52.524;14.104;2023-04-01T13:34:08;6.60;;;5.90;;
3121;SDS011;1571;52.524;14.104;2023-04-01T13:36:49;7.23;;;6.10;;
3121;SDS011;1571;52.524;14.104;2023-04-01T13:39:31;6.17;;;5.57;;
3121;SDS011;1571;52.524;14.104;2023-04-01T13:42:20;5.67;;;4.83;;
3121;SDS011;1571;52.524;14.104;2023-04-01T13:44:54;6.80;;;5.23;;
3121;SDS011;1571;52.524;14.104;2023-04-01T13:47:31;5.43;;;4.60;;
3121;SDS011;1571;52.524;14.104;2023-04-01T13:50:23;6.20;;;5.60;;
3121;SDS011;1571;52.524;14.104;2023-04-01T13:56:04;5.80;;;5.20;;
3121;SDS011;1571;52.524;14.104;2023-04-01T13:58:56;6.80;;;6.10;;
3121;SDS011;1571;52.524;14.104;2023-04-01T14:01:36;8.40;;;5.50;;
3121;SDS011;1571;52.524;14.104;2023-04-01T14:04:13;6.83;;;6.23;;
3121;SDS011;1571;52.524;14.104;2023-04-01T14:07:03;6.17;;;5.60;;
3121;SDS011;1571;52.524;14.104;2023-04-01T14:09:45;7.33;;;6.10;;
3121;SDS011;1571;52.524;14.104;2023-04-01T14:12:30;5.10;;;4.60;;
3121;SDS011;1571;52.524;14.104;2023-04-01T14:15:07;5.47;;;4.90;;
3121;SDS011;1571;52.524;14.104;2023-04-01T14:17:54;5.57;;;4.97;;
3121;SDS011;1571;52.524;14.104;2023-04-01T14:20:36;5.90;;;5.30;;
3121;SDS011;1571;52.524;14.104;2023-04-01T14:23:15;5.47;;;4.97;;
3121;SDS011;1571;52.524;14.104;2023-04-01T14:26:03;7.30;;;6.40;;
3121;SDS011;1571;52.524;14.104;2023-04-01T14:28:41;5.93;;;5.10;;
3121;SDS011;1571;52.524;14.104;2023-04-01T14:31:20;9.93;;;6.10;;
3121;SDS011;1571;52.524;14.104;2023-04-01T14:34:02;5.87;;;5.37;;
3121;SDS011;1571;52.524;14.104;2023-04-01T14:36:45;6.53;;;5.90;;
3121;SDS011;1571;52.524;14.104;2023-04-01T14:45:17;6.80;;;6.10;;
3121;SDS011;1571;52.524;14.104;2023-04-01T14:48:05;8.83;;;6.13;;
3121;SDS011;1571;52.524;14.104;2023-04-01T14:50:44;7.60;;;6.90;;
3121;SDS011;1571;52.524;14.104;2023-04-01T14:53:16;7.73;;;6.93;;
3121;SDS011;1571;52.524;14.104;2023-04-01T14:55:56;7.27;;;6.40;;
3121;SDS011;1571;52.524;14.104;2023-04-01T14:58:31;8.07;;;7.33;;
3121;SDS011;1571;52.524;14.104;2023-04-01T15:01:17;7.77;;;6.27;;
3121;SDS011;1571;52.524;14.104;2023-04-01T15:04:00;6.93;;;5.80;;
3121;SDS011;1571;52.524;14.104;2023-04-01T15:06:56;7.00;;;6.37;;
3121;SDS011;1571;52.524;14.104;2023-04-01T15:09:35;6.90;;;6.20;;
3121;SDS011;1571;52.524;14.104;2023-04-01T15:12:14;9.20;;;7.30;;
3121;SDS011;1571;52.524;14.104;2023-04-01T15:14:52;9.20;;;7.60;;
3121;SDS011;1571;52.524;14.104;2023-04-01T15:17:32;8.13;;;7.33;;
3121;SDS011;1571;52.524;14.104;2023-04-01T15:20:15;10.30;;;9.20;;
3121;SDS011;1571;52.524;14.104;2023-04-01T15:23:02;8.80;;;7.90;;
3121;SDS011;1571;52.524;14.104;2023-04-01T15:25:43;11.60;;;9.63;;
3121;SDS011;1571;52.524;14.104;2023-04-01T15:28:26;9.67;;;8.67;;
3121;SDS011;1571;52.524;14.104;2023-04-01T15:31:02;12.63;;;8.33;;
3121;SDS011;1571;52.524;14.104;2023-04-01T15:33:47;10.30;;;9.20;;
3121;SDS011;1571;52.524;14.104;2023-04-01T15:36:28;9.40;;;8.40;;
3121;SDS011;1571;52.524;14.104;2023-04-01T15:39:10;10.23;;;9.00;;
3121;SDS011;1571;52.524;14.104;2023-04-01T15:41:43;9.97;;;8.97;;
3121;SDS011;1571;52.524;14.104;2023-04-01T15:44:39;12.93;;;9.63;;
3121;SDS011;1571;52.524;14.104;2023-04-01T15:47:34;8.93;;;7.83;;
3121;SDS011;1571;52.524;14.104;2023-04-01T15:50:26;10.37;;;8.67;;
3121;SDS011;1571;52.524;14.104;2023-04-01T15:53:12;11.80;;;9.40;;
3121;SDS011;1571;52.524;14.104;2023-04-01T15:55:53;8.80;;;8.00;;
3121;SDS011;1571;52.524;14.104;2023-04-01T15:58:31;10.37;;;9.13;;
3121;SDS011;1571;52.524;14.104;2023-04-01T16:01:13;9.50;;;7.93;;
3121;SDS011;1571;52.524;14.104;2023-04-01T16:03:51;10.20;;;9.30;;
3121;SDS011;1571;52.524;14.104;2023-04-01T16:06:42;9.57;;;8.60;;
3121;SDS011;1571;52.524;14.104;2023-04-01T16:09:24;8.37;;;7.43;;
3121;SDS011;1571;52.524;14.104;2023-04-01T16:12:10;9.73;;;8.37;;
3121;SDS011;1571;52.524;14.104;2023-04-01T16:14:49;7.67;;;6.87;;
3121;SDS011;1571;52.524;14.104;2023-04-01T16:17:40;9.60;;;7.60;;
3121;SDS011;1571;52.524;14.104;2023-04-01T16:20:23;7.63;;;6.83;;
3121;SDS011;1571;52.524;14.104;2023-04-01T16:23:04;7.40;;;6.70;;
3121;SDS011;1571;52.524;14.104;2023-04-01T16:25:43;8.37;;;7.57;;
3121;SDS011;1571;52.524;14.104;2023-04-01T16:28:18;8.40;;;7.50;;
3121;SDS011;1571;52.524;14.104;2023-04-01T16:30:54;8.30;;;7.60;;
3121;SDS011;1571;52.524;14.104;2023-04-01T16:33:31;8.17;;;7.33;;
3121;SDS011;1571;52.524;14.104;2023-04-01T16:36:08;7.00;;;6.30;;
3121;SDS011;1571;52.524;14.104;2023-04-01T16:38:41;7.30;;;6.60;;
3121;SDS011;1571;52.524;14.104;2023-04-01T16:41:16;9.20;;;6.53;;
3121;SDS011;1571;52.524;14.104;2023-04-01T16:43:47;6.67;;;6.07;;
3121;SDS011;1571;52.524;14.104;2023-04-01T16:46:28;7.97;;;7.17;;
3121;SDS011;1571;52.524;14.104;2023-04-01T16:49:24;8.03;;;7.23;;
3121;SDS011;1571;52.524;14.104;2023-04-01T16:52:00;7.83;;;7.13;;
3121;SDS011;1571;52.524;14.104;2023-04-01T16:54:40;8.43;;;6.40;;
3121;SDS011;1571;52.524;14.104;2023-04-01T16:57:18;8.30;;;7.43;;
3121;SDS011;1571;52.524;14.104;2023-04-01T16:59:54;6.80;;;6.20;;
3121;SDS011;1571;52.524;14.104;2023-04-01T17:02:28;7.57;;;6.87;;
3121;SDS011;1571;52.524;14.104;2023-04-01T17:05:04;6.80;;;6.20;;